SWR161 RJAA-LSZH
Flight info
| Callsign | SWR161 |
|---|---|
| Flight time | N/A |
| Altitude | 33000 |
| Route | GULBO Y808 PUTER A590 PUGAL/N0470F340 A590 POWAL/N0485F330 DCT NATES R338 MORLY/N0474F350 R338 MARCC DCT JUJXI DCT 70N165W/N0490F340 75N163W/N0487F360 80N160W/N0485F350 DCT LEESL/N0481F370 DCT 8730N06000W/M082F370 85N020W 80N006W/M082F380 75N004W/M082F390 70N000W/N0483F390 DCT KOTIV DCT IDIPI DCT AMRAK/N0476F400 DCT SWALM DCT OMOGI/N0477F390 T721 LAMGO/N0461F270 T721 RILAX |
| Aircraft | A339/H-SADE1E2E3GHIJ3J5M1P2RWXY/LB2D1 |
Departure
| Time | 2026-05-06 03:34 |
|---|---|
| Airport | Narita International Airport (RJAA) |
Arrival
| Time | N/A |
|---|---|
| Airport | Zürich Airport (LSZH) |
| Time | Latitude | Longitude | Altitude | Speed | Heading |
|---|---|---|---|---|---|
| 2026-05-06 02:55 | 35.75942 | 140.38551 | 144 ft | 0 kts | 59° |
| 2026-05-06 03:22 | 35.75935 | 140.38536 | 144 ft | 2 kts | 59° |
| 2026-05-06 03:22 | 35.75927 | 140.38519 | 144 ft | 2 kts | 59° |
| 2026-05-06 03:22 | 35.75922 | 140.38510 | 144 ft | 2 kts | 58° |
| 2026-05-06 03:23 | 35.75913 | 140.38496 | 144 ft | 2 kts | 40° |
| 2026-05-06 03:23 | 35.75901 | 140.38486 | 144 ft | 2 kts | 27° |
| 2026-05-06 03:23 | 35.75888 | 140.38478 | 144 ft | 2 kts | 14° |
| 2026-05-06 03:23 | 35.75873 | 140.38475 | 144 ft | 2 kts | 0° |
| 2026-05-06 03:24 | 35.75858 | 140.38477 | 144 ft | 2 kts | 347° |
| 2026-05-06 03:24 | 35.75844 | 140.38483 | 144 ft | 2 kts | 333° |
| 2026-05-06 03:24 | 35.75841 | 140.38484 | 144 ft | 1 kts | 329° |
| 2026-05-06 03:24 | 35.75870 | 140.38464 | 144 ft | 7 kts | 329° |
| 2026-05-06 03:25 | 35.75907 | 140.38438 | 144 ft | 3 kts | 329° |
| 2026-05-06 03:25 | 35.75916 | 140.38431 | 144 ft | 0 kts | 329° |
| 2026-05-06 03:28 | 35.75921 | 140.38428 | 144 ft | 2 kts | 329° |
| 2026-05-06 03:28 | 35.75950 | 140.38406 | 144 ft | 8 kts | 329° |
| 2026-05-06 03:28 | 35.75996 | 140.38373 | 144 ft | 8 kts | 328° |
| 2026-05-06 03:28 | 35.76044 | 140.38321 | 144 ft | 10 kts | 296° |
| 2026-05-06 03:29 | 35.76026 | 140.38231 | 144 ft | 11 kts | 237° |
| 2026-05-06 03:29 | 35.76015 | 140.38136 | 144 ft | 13 kts | 296° |
| 2026-05-06 03:29 | 35.76101 | 140.38051 | 144 ft | 18 kts | 329° |
| 2026-05-06 03:29 | 35.76215 | 140.37968 | 144 ft | 19 kts | 329° |
| 2026-05-06 03:30 | 35.76333 | 140.37885 | 144 ft | 19 kts | 329° |
| 2026-05-06 03:30 | 35.76458 | 140.37793 | 144 ft | 21 kts | 328° |
| 2026-05-06 03:30 | 35.76589 | 140.37695 | 144 ft | 21 kts | 329° |
| 2026-05-06 03:30 | 35.76717 | 140.37605 | 144 ft | 20 kts | 329° |
| 2026-05-06 03:31 | 35.76839 | 140.37518 | 144 ft | 20 kts | 330° |
| 2026-05-06 03:31 | 35.76964 | 140.37428 | 144 ft | 20 kts | 329° |
| 2026-05-06 03:31 | 35.77088 | 140.37340 | 144 ft | 20 kts | 329° |
| 2026-05-06 03:31 | 35.77211 | 140.37251 | 144 ft | 19 kts | 329° |
| 2026-05-06 03:32 | 35.77329 | 140.37164 | 144 ft | 19 kts | 329° |
| 2026-05-06 03:32 | 35.77438 | 140.37083 | 144 ft | 14 kts | 328° |
| 2026-05-06 03:32 | 35.77491 | 140.37009 | 144 ft | 11 kts | 276° |
| 2026-05-06 03:32 | 35.77460 | 140.36905 | 140 ft | 10 kts | 239° |
| 2026-05-06 03:33 | 35.77412 | 140.36862 | 138 ft | 9 kts | 180° |
| 2026-05-06 03:33 | 35.77370 | 140.36882 | 139 ft | 0 kts | 150° |
| 2026-05-06 03:33 | 35.77368 | 140.36883 | 138 ft | 6 kts | 150° |
| 2026-05-06 03:33 | 35.77139 | 140.37050 | 138 ft | 68 kts | 150° |
| 2026-05-06 03:34 | 35.76571 | 140.37459 | 139 ft | 120 kts | 149° |
| 2026-05-06 03:34 | 35.75715 | 140.38078 | 145 ft | 164 kts | 149° |
| 2026-05-06 03:34 | 35.74649 | 140.38849 | 346 ft | 185 kts | 151° |
| 2026-05-06 03:34 | 35.73578 | 140.39651 | 967 ft | 179 kts | 149° |
| 2026-05-06 03:35 | 35.72537 | 140.40456 | 1597 ft | 176 kts | 152° |
| 2026-05-06 03:35 | 35.71499 | 140.41202 | 2153 ft | 170 kts | 153° |
| 2026-05-06 03:35 | 35.70482 | 140.41901 | 2535 ft | 169 kts | 154° |
| 2026-05-06 03:35 | 35.69449 | 140.42631 | 2801 ft | 176 kts | 152° |
| 2026-05-06 03:36 | 35.68323 | 140.43478 | 2825 ft | 199 kts | 152° |
| 2026-05-06 03:36 | 35.67076 | 140.44365 | 3064 ft | 211 kts | 153° |
| 2026-05-06 03:36 | 35.65758 | 140.45282 | 3308 ft | 224 kts | 153° |
| 2026-05-06 03:36 | 35.64368 | 140.46260 | 3560 ft | 238 kts | 152° |
| 2026-05-06 03:37 | 35.62899 | 140.47302 | 3819 ft | 251 kts | 152° |
| 2026-05-06 03:37 | 35.61339 | 140.48416 | 4159 ft | 262 kts | 152° |
| 2026-05-06 03:37 | 35.59760 | 140.49548 | 4700 ft | 264 kts | 152° |
| 2026-05-06 03:37 | 35.58182 | 140.50679 | 5235 ft | 265 kts | 152° |
| 2026-05-06 03:38 | 35.56595 | 140.51819 | 5750 ft | 267 kts | 152° |
| 2026-05-06 03:38 | 35.54986 | 140.52975 | 6288 ft | 268 kts | 152° |
| 2026-05-06 03:38 | 35.53392 | 140.54121 | 6800 ft | 269 kts | 152° |
| 2026-05-06 03:38 | 35.51759 | 140.55289 | 7270 ft | 271 kts | 152° |
| 2026-05-06 03:39 | 35.50135 | 140.56453 | 7704 ft | 275 kts | 151° |
| 2026-05-06 03:39 | 35.48485 | 140.57636 | 8186 ft | 276 kts | 151° |
| 2026-05-06 03:39 | 35.46806 | 140.58838 | 8661 ft | 278 kts | 151° |
| 2026-05-06 03:39 | 35.45139 | 140.60031 | 9099 ft | 281 kts | 150° |
| 2026-05-06 03:40 | 35.43490 | 140.61334 | 9536 ft | 284 kts | 141° |
| 2026-05-06 03:40 | 35.42091 | 140.63036 | 9987 ft | 288 kts | 129° |
| 2026-05-06 03:40 | 35.40931 | 140.65016 | 10329 ft | 295 kts | 126° |
| 2026-05-06 03:40 | 35.39774 | 140.67120 | 10539 ft | 306 kts | 126° |
| 2026-05-06 03:41 | 35.38582 | 140.69301 | 10741 ft | 317 kts | 126° |
| 2026-05-06 03:41 | 35.37324 | 140.71587 | 10945 ft | 328 kts | 126° |
| 2026-05-06 03:41 | 35.36029 | 140.73929 | 11148 ft | 339 kts | 127° |
| 2026-05-06 03:41 | 35.34678 | 140.76367 | 11354 ft | 350 kts | 127° |
| 2026-05-06 03:42 | 35.33279 | 140.78880 | 11552 ft | 361 kts | 127° |
| 2026-05-06 03:42 | 35.31842 | 140.81456 | 11739 ft | 372 kts | 127° |
| 2026-05-06 03:42 | 35.30375 | 140.84090 | 11995 ft | 381 kts | 127° |
| 2026-05-06 03:42 | 35.28878 | 140.86774 | 12399 ft | 385 kts | 128° |
| 2026-05-06 03:43 | 35.27360 | 140.89500 | 12849 ft | 387 kts | 128° |
| 2026-05-06 03:43 | 35.25851 | 140.92201 | 13223 ft | 392 kts | 128° |
| 2026-05-06 03:43 | 35.24297 | 140.94975 | 13640 ft | 395 kts | 128° |
| 2026-05-06 03:43 | 35.22737 | 140.97768 | 14049 ft | 399 kts | 127° |
| 2026-05-06 03:44 | 35.21551 | 141.00825 | 14317 ft | 414 kts | 107° |
| 2026-05-06 03:44 | 35.21335 | 141.04367 | 14702 ft | 425 kts | 85° |
| 2026-05-06 03:44 | 35.22127 | 141.07884 | 15129 ft | 430 kts | 68° |
| 2026-05-06 03:44 | 35.23296 | 141.11211 | 15481 ft | 434 kts | 68° |
| 2026-05-06 03:45 | 35.24477 | 141.14619 | 15858 ft | 438 kts | 68° |
| 2026-05-06 03:45 | 35.25655 | 141.18094 | 16218 ft | 442 kts | 68° |
| 2026-05-06 03:45 | 35.26806 | 141.21564 | 16577 ft | 446 kts | 68° |
| 2026-05-06 03:45 | 35.27978 | 141.25111 | 16905 ft | 451 kts | 68° |
| 2026-05-06 03:46 | 35.29147 | 141.28685 | 17284 ft | 454 kts | 68° |
| 2026-05-06 03:46 | 35.30314 | 141.32256 | 17612 ft | 458 kts | 68° |
| 2026-05-06 03:46 | 35.31511 | 141.35921 | 17956 ft | 462 kts | 68° |
| 2026-05-06 03:46 | 35.32692 | 141.39543 | 18287 ft | 466 kts | 68° |
| 2026-05-06 03:47 | 35.33904 | 141.43265 | 18658 ft | 469 kts | 68° |
| 2026-05-06 03:47 | 35.35113 | 141.46976 | 18982 ft | 473 kts | 69° |
| 2026-05-06 03:47 | 35.36329 | 141.50731 | 19317 ft | 477 kts | 69° |
| 2026-05-06 03:47 | 35.37547 | 141.54503 | 19661 ft | 480 kts | 69° |
| 2026-05-06 03:48 | 35.38794 | 141.58350 | 19995 ft | 483 kts | 68° |
| 2026-05-06 03:48 | 35.40022 | 141.62148 | 20324 ft | 486 kts | 69° |
| 2026-05-06 03:48 | 35.41199 | 141.65801 | 20600 ft | 490 kts | 69° |
| 2026-05-06 03:48 | 35.42451 | 141.69681 | 20893 ft | 493 kts | 70° |
| 2026-05-06 03:49 | 35.43558 | 141.73698 | 21223 ft | 494 kts | 77° |
| 2026-05-06 03:49 | 35.44183 | 141.77811 | 21517 ft | 493 kts | 87° |
| 2026-05-06 03:49 | 35.44334 | 141.81982 | 21790 ft | 493 kts | 94° |
| 2026-05-06 03:49 | 35.44293 | 141.86168 | 22065 ft | 496 kts | 95° |
| 2026-05-06 03:50 | 35.44217 | 141.90378 | 22335 ft | 498 kts | 95° |
| 2026-05-06 03:50 | 35.44145 | 141.94623 | 22611 ft | 501 kts | 95° |
| 2026-05-06 03:50 | 35.44086 | 141.98920 | 22924 ft | 503 kts | 95° |
| 2026-05-06 03:50 | 35.44036 | 142.03212 | 23195 ft | 506 kts | 94° |
| 2026-05-06 03:51 | 35.43996 | 142.07492 | 23422 ft | 509 kts | 94° |
| 2026-05-06 03:51 | 35.43956 | 142.11812 | 23689 ft | 512 kts | 94° |
| 2026-05-06 03:51 | 35.43914 | 142.16229 | 23954 ft | 514 kts | 95° |
| 2026-05-06 03:51 | 35.43869 | 142.20616 | 24196 ft | 517 kts | 95° |
| 2026-05-06 03:52 | 35.43828 | 142.25000 | 24423 ft | 520 kts | 94° |
| 2026-05-06 03:52 | 35.43782 | 142.29421 | 24676 ft | 523 kts | 94° |
| 2026-05-06 03:52 | 35.43735 | 142.33899 | 24889 ft | 526 kts | 94° |
| 2026-05-06 03:52 | 35.43691 | 142.38377 | 25123 ft | 528 kts | 94° |
| 2026-05-06 03:53 | 35.43641 | 142.42833 | 25348 ft | 531 kts | 94° |
| 2026-05-06 03:53 | 35.43593 | 142.47382 | 25619 ft | 532 kts | 94° |
| 2026-05-06 03:53 | 35.43539 | 142.51872 | 25892 ft | 534 kts | 94° |
| 2026-05-06 03:53 | 35.43481 | 142.56432 | 26127 ft | 536 kts | 94° |
| 2026-05-06 03:54 | 35.43418 | 142.60986 | 26295 ft | 539 kts | 94° |
| 2026-05-06 03:54 | 35.43357 | 142.65578 | 26508 ft | 542 kts | 94° |
| 2026-05-06 03:54 | 35.43289 | 142.70201 | 26665 ft | 545 kts | 94° |
| 2026-05-06 03:54 | 35.43225 | 142.74821 | 26870 ft | 546 kts | 94° |
| 2026-05-06 03:55 | 35.43160 | 142.79454 | 27085 ft | 548 kts | 94° |
| 2026-05-06 03:55 | 35.43091 | 142.84145 | 27285 ft | 550 kts | 94° |
| 2026-05-06 03:55 | 35.43023 | 142.88789 | 27502 ft | 551 kts | 94° |
| 2026-05-06 03:55 | 35.42949 | 142.93507 | 27785 ft | 551 kts | 94° |
| 2026-05-06 03:56 | 35.42876 | 142.98193 | 28021 ft | 551 kts | 94° |
| 2026-05-06 03:56 | 35.42803 | 143.02879 | 28277 ft | 551 kts | 94° |
| 2026-05-06 03:56 | 35.42729 | 143.07553 | 28573 ft | 551 kts | 94° |
| 2026-05-06 03:56 | 35.42650 | 143.12203 | 28794 ft | 551 kts | 94° |
| 2026-05-06 03:57 | 35.42567 | 143.16921 | 29021 ft | 552 kts | 94° |
| 2026-05-06 03:57 | 35.42481 | 143.21573 | 29294 ft | 551 kts | 94° |
| 2026-05-06 03:57 | 35.42627 | 143.26296 | 29444 ft | 556 kts | 81° |
| 2026-05-06 03:57 | 35.43699 | 143.30798 | 29573 ft | 557 kts | 63° |
| 2026-05-06 03:58 | 35.45711 | 143.34834 | 29753 ft | 551 kts | 46° |
| 2026-05-06 03:58 | 35.48443 | 143.38062 | 29923 ft | 540 kts | 28° |
| 2026-05-06 03:58 | 35.51580 | 143.40428 | 30205 ft | 529 kts | 21° |
| 2026-05-06 03:58 | 35.54805 | 143.42598 | 30532 ft | 526 kts | 20° |
| 2026-05-06 03:59 | 35.57974 | 143.44728 | 30807 ft | 526 kts | 21° |
| 2026-05-06 03:59 | 35.61181 | 143.46935 | 31015 ft | 527 kts | 21° |
| 2026-05-06 03:59 | 35.64362 | 143.49176 | 31232 ft | 528 kts | 22° |
| 2026-05-06 03:59 | 35.67536 | 143.51447 | 31389 ft | 530 kts | 22° |
| 2026-05-06 04:00 | 35.70691 | 143.53726 | 31535 ft | 532 kts | 22° |
| 2026-05-06 04:00 | 35.73879 | 143.56039 | 31778 ft | 531 kts | 22° |
| 2026-05-06 04:00 | 35.77065 | 143.58350 | 31979 ft | 532 kts | 21° |
| 2026-05-06 04:00 | 35.80243 | 143.60651 | 32150 ft | 532 kts | 22° |
| 2026-05-06 04:01 | 35.83428 | 143.62961 | 32290 ft | 534 kts | 22° |
| 2026-05-06 04:01 | 35.86653 | 143.65305 | 32525 ft | 534 kts | 22° |
| 2026-05-06 04:01 | 35.89865 | 143.67633 | 32648 ft | 535 kts | 22° |
| 2026-05-06 04:01 | 35.93029 | 143.69934 | 32758 ft | 536 kts | 22° |
| 2026-05-06 04:02 | 35.96238 | 143.72275 | 32905 ft | 537 kts | 22° |
| 2026-05-06 04:02 | 35.99472 | 143.74637 | 33049 ft | 538 kts | 22° |
| 2026-05-06 04:02 | 36.02687 | 143.76985 | 33218 ft | 538 kts | 22° |
| 2026-05-06 04:02 | 36.05885 | 143.79326 | 33256 ft | 539 kts | 22° |
| 2026-05-06 04:03 | 36.12378 | 143.84067 | 33258 ft | 541 kts | 22° |
| 2026-05-06 04:03 | 36.18807 | 143.88788 | 33259 ft | 536 kts | 22° |
| 2026-05-06 04:04 | 36.25214 | 143.93489 | 33256 ft | 539 kts | 21° |
| 2026-05-06 04:04 | 36.31633 | 143.98216 | 33248 ft | 539 kts | 21° |
| 2026-05-06 04:05 | 36.38060 | 144.02965 | 33247 ft | 539 kts | 22° |
| 2026-05-06 04:05 | 36.44517 | 144.07738 | 33247 ft | 541 kts | 21° |
| 2026-05-06 04:06 | 36.50959 | 144.12514 | 33248 ft | 539 kts | 21° |
| 2026-05-06 04:06 | 36.57428 | 144.17308 | 33250 ft | 543 kts | 21° |
| 2026-05-06 04:07 | 36.63899 | 144.22128 | 33248 ft | 542 kts | 21° |
| 2026-05-06 04:07 | 36.70314 | 144.26910 | 33250 ft | 541 kts | 21° |
| 2026-05-06 04:08 | 36.76759 | 144.31718 | 33252 ft | 538 kts | 21° |
| 2026-05-06 04:08 | 36.83223 | 144.36556 | 33255 ft | 542 kts | 21° |
| 2026-05-06 04:09 | 36.89652 | 144.41394 | 33257 ft | 540 kts | 21° |
| 2026-05-06 04:09 | 36.96076 | 144.46234 | 33257 ft | 538 kts | 21° |
| 2026-05-06 04:10 | 37.02488 | 144.51068 | 33262 ft | 539 kts | 21° |
| 2026-05-06 04:10 | 37.08892 | 144.55908 | 33261 ft | 538 kts | 20° |
| 2026-05-06 04:11 | 37.15317 | 144.60765 | 33258 ft | 542 kts | 21° |
| 2026-05-06 04:11 | 37.21732 | 144.65642 | 33250 ft | 539 kts | 21° |
| 2026-05-06 04:12 | 37.28107 | 144.70487 | 33254 ft | 540 kts | 21° |
| 2026-05-06 04:12 | 37.34531 | 144.75378 | 33259 ft | 540 kts | 21° |
| 2026-05-06 04:13 | 37.40968 | 144.80298 | 33257 ft | 540 kts | 21° |
| 2026-05-06 04:13 | 37.47400 | 144.85214 | 33255 ft | 541 kts | 21° |
| 2026-05-06 04:14 | 37.53804 | 144.90129 | 33257 ft | 543 kts | 21° |
| 2026-05-06 04:14 | 37.60205 | 144.95052 | 33255 ft | 540 kts | 21° |
| 2026-05-06 04:15 | 37.66642 | 145.00001 | 33253 ft | 541 kts | 21° |
| 2026-05-06 04:15 | 37.73043 | 145.04932 | 33255 ft | 544 kts | 21° |
| 2026-05-06 04:16 | 37.79478 | 145.09915 | 33254 ft | 540 kts | 21° |
| 2026-05-06 04:16 | 37.85914 | 145.14893 | 33258 ft | 543 kts | 20° |
| 2026-05-06 04:17 | 37.92314 | 145.19862 | 33257 ft | 541 kts | 20° |
| 2026-05-06 04:17 | 37.98725 | 145.24846 | 33253 ft | 541 kts | 21° |
| 2026-05-06 04:18 | 38.05141 | 145.29839 | 33254 ft | 545 kts | 21° |
| 2026-05-06 04:18 | 38.11613 | 145.34901 | 33250 ft | 544 kts | 20° |
| 2026-05-06 04:19 | 38.18058 | 145.39935 | 33248 ft | 547 kts | 21° |
| 2026-05-06 04:19 | 38.24491 | 145.44989 | 33248 ft | 547 kts | 21° |
| 2026-05-06 04:20 | 38.30965 | 145.50194 | 33251 ft | 556 kts | 24° |
| 2026-05-06 04:20 | 38.37114 | 145.56308 | 33248 ft | 567 kts | 32° |
| 2026-05-06 04:21 | 38.42940 | 145.63142 | 33248 ft | 570 kts | 34° |
| 2026-05-06 04:21 | 38.48677 | 145.70024 | 33240 ft | 566 kts | 35° |
| 2026-05-06 04:22 | 38.54432 | 145.76860 | 33241 ft | 568 kts | 35° |
| 2026-05-06 04:23 | 38.63103 | 145.87167 | 33253 ft | 567 kts | 35° |
| 2026-05-06 04:23 | 38.68834 | 145.94000 | 33242 ft | 562 kts | 34° |
| 2026-05-06 04:24 | 38.74562 | 146.00818 | 33241 ft | 564 kts | 34° |
| 2026-05-06 04:24 | 38.80266 | 146.07636 | 33242 ft | 564 kts | 34° |
| 2026-05-06 04:25 | 38.85976 | 146.14473 | 33235 ft | 563 kts | 34° |
| 2026-05-06 04:25 | 38.91699 | 146.21338 | 33234 ft | 565 kts | 35° |
| 2026-05-06 04:26 | 38.97413 | 146.28227 | 33241 ft | 563 kts | 34° |
| 2026-05-06 04:26 | 39.03102 | 146.35092 | 33234 ft | 561 kts | 34° |
| 2026-05-06 04:27 | 39.08765 | 146.41933 | 33232 ft | 563 kts | 34° |
| 2026-05-06 04:27 | 39.14427 | 146.48807 | 33247 ft | 558 kts | 34° |
| 2026-05-06 04:28 | 39.20068 | 146.55664 | 33238 ft | 555 kts | 34° |
| 2026-05-06 04:28 | 39.25661 | 146.62460 | 33241 ft | 557 kts | 34° |
| 2026-05-06 04:29 | 39.31266 | 146.69302 | 33248 ft | 554 kts | 36° |
| 2026-05-06 04:29 | 39.36858 | 146.76144 | 33241 ft | 555 kts | 36° |
| 2026-05-06 04:30 | 39.42459 | 146.83012 | 33249 ft | 556 kts | 36° |
| 2026-05-06 04:30 | 39.48003 | 146.89835 | 33236 ft | 551 kts | 37° |
| 2026-05-06 04:31 | 39.53572 | 146.96687 | 33244 ft | 551 kts | 37° |
| 2026-05-06 04:31 | 39.59080 | 147.03496 | 33228 ft | 550 kts | 37° |
| 2026-05-06 04:32 | 39.64623 | 147.10353 | 33243 ft | 548 kts | 37° |
| 2026-05-06 04:32 | 39.70103 | 147.17156 | 33237 ft | 547 kts | 37° |
| 2026-05-06 04:33 | 39.75586 | 147.23967 | 33226 ft | 545 kts | 37° |
| 2026-05-06 04:33 | 39.81059 | 147.30791 | 33238 ft | 544 kts | 37° |
| 2026-05-06 04:34 | 39.86503 | 147.37589 | 33227 ft | 544 kts | 37° |
| 2026-05-06 04:34 | 39.91949 | 147.44411 | 33230 ft | 543 kts | 37° |
| 2026-05-06 04:35 | 39.97391 | 147.51237 | 33233 ft | 540 kts | 38° |
| 2026-05-06 04:35 | 40.02792 | 147.58034 | 33228 ft | 540 kts | 38° |
| 2026-05-06 04:36 | 40.08163 | 147.64806 | 33219 ft | 540 kts | 38° |
| 2026-05-06 04:36 | 40.13555 | 147.71619 | 33214 ft | 538 kts | 39° |
| 2026-05-06 04:37 | 40.18921 | 147.78416 | 33209 ft | 538 kts | 38° |
| 2026-05-06 04:37 | 40.24271 | 147.85210 | 33214 ft | 538 kts | 39° |
| 2026-05-06 04:38 | 40.29638 | 147.92036 | 33214 ft | 537 kts | 39° |
| 2026-05-06 04:38 | 40.34951 | 147.98819 | 33202 ft | 536 kts | 39° |
| 2026-05-06 04:39 | 40.40291 | 148.05641 | 33200 ft | 537 kts | 39° |
| 2026-05-06 04:39 | 40.45621 | 148.12482 | 33194 ft | 534 kts | 39° |
| 2026-05-06 04:40 | 40.50950 | 148.19321 | 33205 ft | 535 kts | 39° |
| 2026-05-06 04:40 | 40.56230 | 148.26125 | 33200 ft | 534 kts | 39° |
| 2026-05-06 04:41 | 40.61520 | 148.32950 | 33194 ft | 533 kts | 39° |
| 2026-05-06 04:41 | 40.66806 | 148.39787 | 33195 ft | 531 kts | 39° |
| 2026-05-06 04:42 | 40.72060 | 148.46599 | 33197 ft | 532 kts | 39° |
| 2026-05-06 04:42 | 40.77307 | 148.53418 | 33204 ft | 531 kts | 39° |
| 2026-05-06 04:43 | 40.82533 | 148.60226 | 33191 ft | 530 kts | 39° |
| 2026-05-06 04:43 | 40.87786 | 148.67085 | 33179 ft | 529 kts | 40° |
| 2026-05-06 04:44 | 40.92977 | 148.73885 | 33197 ft | 527 kts | 40° |
| 2026-05-06 04:44 | 40.98173 | 148.80695 | 33181 ft | 526 kts | 40° |
| 2026-05-06 04:45 | 41.03348 | 148.87501 | 33175 ft | 525 kts | 40° |
| 2026-05-06 04:45 | 41.08522 | 148.94325 | 33168 ft | 523 kts | 40° |
| 2026-05-06 04:46 | 41.13661 | 149.01119 | 33166 ft | 522 kts | 40° |
| 2026-05-06 04:46 | 41.18787 | 149.07910 | 33179 ft | 522 kts | 40° |
| 2026-05-06 04:47 | 41.23894 | 149.14697 | 33184 ft | 522 kts | 40° |
| 2026-05-06 04:47 | 41.29012 | 149.21510 | 33177 ft | 520 kts | 40° |
| 2026-05-06 04:48 | 41.34124 | 149.28336 | 33177 ft | 519 kts | 40° |
| 2026-05-06 04:48 | 41.39173 | 149.35091 | 33183 ft | 518 kts | 40° |
| 2026-05-06 04:49 | 41.44254 | 149.41904 | 33188 ft | 517 kts | 40° |
| 2026-05-06 04:49 | 41.49314 | 149.48703 | 33159 ft | 516 kts | 40° |
| 2026-05-06 04:50 | 41.54325 | 149.55456 | 33171 ft | 514 kts | 40° |
| 2026-05-06 04:50 | 41.59335 | 149.62225 | 33167 ft | 515 kts | 40° |
| 2026-05-06 04:51 | 41.64372 | 149.69041 | 33178 ft | 514 kts | 41° |
| 2026-05-06 04:51 | 41.69356 | 149.75804 | 33161 ft | 512 kts | 41° |
| 2026-05-06 04:52 | 41.74358 | 149.82610 | 33164 ft | 512 kts | 41° |
| 2026-05-06 04:52 | 41.79314 | 149.89363 | 33164 ft | 512 kts | 41° |
| 2026-05-06 04:53 | 41.84282 | 149.96153 | 33145 ft | 511 kts | 41° |
| 2026-05-06 04:53 | 41.89261 | 150.02974 | 33154 ft | 510 kts | 41° |
| 2026-05-06 04:54 | 41.94210 | 150.09769 | 33166 ft | 509 kts | 41° |
| 2026-05-06 04:54 | 41.99137 | 150.16550 | 33151 ft | 508 kts | 41° |
| 2026-05-06 04:55 | 42.04053 | 150.23329 | 33142 ft | 507 kts | 41° |
| 2026-05-06 04:55 | 42.08968 | 150.30125 | 33141 ft | 508 kts | 41° |
| 2026-05-06 04:56 | 42.13855 | 150.36902 | 33129 ft | 507 kts | 41° |
| 2026-05-06 04:56 | 42.18753 | 150.43707 | 33138 ft | 507 kts | 41° |
| 2026-05-06 04:57 | 42.23671 | 150.50555 | 33134 ft | 507 kts | 41° |
| 2026-05-06 04:57 | 42.28561 | 150.57381 | 33133 ft | 507 kts | 41° |
| 2026-05-06 04:58 | 42.33446 | 150.64217 | 33126 ft | 507 kts | 41° |
| 2026-05-06 04:58 | 42.38348 | 150.71091 | 33120 ft | 508 kts | 42° |
| 2026-05-06 04:59 | 42.43220 | 150.77942 | 33116 ft | 507 kts | 42° |
| 2026-05-06 04:59 | 42.48103 | 150.84824 | 33116 ft | 508 kts | 42° |
| 2026-05-06 05:00 | 42.53014 | 150.91760 | 33118 ft | 508 kts | 42° |
| 2026-05-06 05:00 | 42.57892 | 150.98666 | 33112 ft | 507 kts | 42° |
| 2026-05-06 05:01 | 42.62759 | 151.05577 | 33113 ft | 507 kts | 42° |
| 2026-05-06 05:01 | 42.67613 | 151.12485 | 33111 ft | 507 kts | 41° |
| 2026-05-06 05:02 | 42.72489 | 151.19438 | 33114 ft | 508 kts | 41° |
| 2026-05-06 05:02 | 42.77327 | 151.26358 | 33107 ft | 508 kts | 41° |
| 2026-05-06 05:03 | 42.82189 | 151.33325 | 33104 ft | 508 kts | 41° |
| 2026-05-06 05:03 | 42.87044 | 151.40302 | 33097 ft | 508 kts | 41° |
| 2026-05-06 05:04 | 42.91858 | 151.47237 | 33093 ft | 508 kts | 41° |
| 2026-05-06 05:04 | 42.96720 | 151.54256 | 33091 ft | 509 kts | 41° |
| 2026-05-06 05:05 | 43.01560 | 151.61264 | 33090 ft | 509 kts | 41° |
| 2026-05-06 05:05 | 43.06389 | 151.68268 | 33092 ft | 510 kts | 42° |
| 2026-05-06 05:06 | 43.11260 | 151.75356 | 33090 ft | 510 kts | 42° |
| 2026-05-06 05:06 | 43.16099 | 151.82410 | 33086 ft | 511 kts | 42° |
| 2026-05-06 05:07 | 43.20950 | 151.89502 | 33084 ft | 511 kts | 42° |
| 2026-05-06 05:07 | 43.25801 | 151.96611 | 33082 ft | 512 kts | 41° |
| 2026-05-06 05:08 | 43.30645 | 152.03729 | 33080 ft | 512 kts | 41° |
| 2026-05-06 05:08 | 43.35489 | 152.10864 | 33080 ft | 512 kts | 41° |
| 2026-05-06 05:09 | 43.40336 | 152.18024 | 33066 ft | 513 kts | 41° |
| 2026-05-06 05:09 | 43.45158 | 152.25160 | 33070 ft | 513 kts | 41° |
| 2026-05-06 05:10 | 43.50008 | 152.32358 | 33066 ft | 514 kts | 41° |
| 2026-05-06 05:10 | 43.54835 | 152.39540 | 33061 ft | 514 kts | 41° |
| 2026-05-06 05:11 | 43.59686 | 152.46776 | 33061 ft | 515 kts | 41° |
| 2026-05-06 05:11 | 43.64542 | 152.54036 | 33057 ft | 515 kts | 41° |
| 2026-05-06 05:12 | 43.69382 | 152.61296 | 33053 ft | 515 kts | 41° |
| 2026-05-06 05:12 | 43.74201 | 152.68539 | 33056 ft | 515 kts | 41° |
| 2026-05-06 05:13 | 43.79042 | 152.75833 | 33049 ft | 516 kts | 41° |
| 2026-05-06 05:13 | 43.83864 | 152.83118 | 33041 ft | 517 kts | 41° |
| 2026-05-06 05:14 | 43.88727 | 152.90482 | 33046 ft | 518 kts | 41° |
| 2026-05-06 05:14 | 43.93549 | 152.97807 | 33039 ft | 518 kts | 41° |
| 2026-05-06 05:15 | 43.98379 | 153.05160 | 33044 ft | 519 kts | 41° |
| 2026-05-06 05:15 | 44.03211 | 153.12541 | 33040 ft | 518 kts | 41° |
| 2026-05-06 05:16 | 44.08047 | 153.19943 | 33042 ft | 518 kts | 41° |
| 2026-05-06 05:16 | 44.12904 | 153.27394 | 33031 ft | 519 kts | 41° |
| 2026-05-06 05:17 | 44.17719 | 153.34804 | 33030 ft | 519 kts | 41° |
| 2026-05-06 05:17 | 44.22530 | 153.42227 | 33031 ft | 519 kts | 41° |
| 2026-05-06 05:18 | 44.27349 | 153.49678 | 33023 ft | 519 kts | 41° |
| 2026-05-06 05:18 | 44.32167 | 153.57153 | 33014 ft | 519 kts | 41° |
| 2026-05-06 05:19 | 44.36975 | 153.64632 | 33018 ft | 520 kts | 41° |
| 2026-05-06 05:19 | 44.41809 | 153.72166 | 33013 ft | 520 kts | 42° |
| 2026-05-06 05:20 | 44.46617 | 153.79686 | 33006 ft | 520 kts | 41° |
| 2026-05-06 05:20 | 44.51426 | 153.87224 | 32998 ft | 521 kts | 41° |
| 2026-05-06 05:21 | 44.56227 | 153.94769 | 32999 ft | 522 kts | 41° |
| 2026-05-06 05:21 | 44.61039 | 154.02351 | 33000 ft | 523 kts | 41° |
| 2026-05-06 05:22 | 44.65856 | 154.09967 | 32997 ft | 523 kts | 41° |
| 2026-05-06 05:22 | 44.70667 | 154.17590 | 33003 ft | 523 kts | 41° |